Time;durP1;ratioP1;P1;durP2;ratioP2;P2;SDS_P1;SDS_P2;PMS_P1;PMS_P2;Temp;Humidity;BMP_temperature;BMP_pressure;BME280_temperature;BME280_humidity;BME280_pressure;Samples;Min_cycle;Max_cycle;Signal;HPM_P1;HPM_P2
2023/11/19 00:00:11;;;;;;;7.10;4.00;;;;;;;10.28;65.48;98959.38;5037394;28;20025;-67
2023/11/19 00:02:36;;;;;;;7.43;4.13;;;;;;;10.33;65.88;98970.22;5036458;28;20036;-66
2023/11/19 00:05:04;;;;;;;8.00;4.22;;;;;;;10.15;65.78;98972.63;5026955;28;20838;-67
2023/11/19 00:07:32;;;;;;;8.50;4.10;;;;;;;10.15;66.44;98976.03;5049715;28;20492;-66
2023/11/19 00:09:59;;;;;;;7.80;3.90;;;;;;;10.17;66.80;98970.72;5052260;28;20020;-65
2023/11/19 00:12:27;;;;;;;7.88;4.03;;;;;;;10.01;66.88;98942.63;5022785;28;20551;-66
2023/11/19 00:14:54;;;;;;;7.65;4.07;;;;;;;10.17;67.01;98955.13;5033144;28;20056;-68
2023/11/19 00:17:20;;;;;;;6.75;3.90;;;;;;;10.23;66.58;98957.19;5025384;28;20059;-68
2023/11/19 00:19:46;;;;;;;8.10;4.00;;;;;;;10.13;66.69;98951.97;5027457;28;20456;-67
2023/11/19 00:22:11;;;;;;;6.57;3.67;;;;;;;9.85;65.75;98957.91;5051894;28;20016;-67
2023/11/19 00:24:39;;;;;;;7.50;3.92;;;;;;;9.42;65.88;98941.59;5035409;28;20754;-67
2023/11/19 00:27:04;;;;;;;8.13;3.72;;;;;;;9.66;66.56;98954.28;5023012;28;20945;-64
2023/11/19 00:29:30;;;;;;;7.95;3.80;;;;;;;9.71;66.30;98940.88;5056384;28;20029;-67
2023/11/19 00:31:55;;;;;;;6.55;3.58;;;;;;;9.49;66.81;98905.56;5040073;28;20045;-66
2023/11/19 00:34:22;;;;;;;6.90;3.63;;;;;;;9.71;67.09;98946.94;5037117;28;20032;-68
2023/11/19 00:36:50;;;;;;;8.32;3.50;;;;;;;9.63;68.17;98949.34;5041679;28;20028;-66
2023/11/19 00:39:19;;;;;;;6.93;3.38;;;;;;;9.68;66.76;98946.38;5021848;28;20493;-67
2023/11/19 00:41:46;;;;;;;7.90;3.72;;;;;;;9.65;67.47;98938.81;5029697;28;20633;-66
2023/11/19 00:44:11;;;;;;;6.82;3.35;;;;;;;9.45;67.22;98919.75;5032223;28;20033;-67
2023/11/19 00:46:36;;;;;;;6.50;3.33;;;;;;;9.68;67.66;98961.94;5032859;28;20032;-66
2023/11/19 00:49:02;;;;;;;7.78;3.47;;;;;;;9.62;67.35;98958.09;5029792;28;20026;-67
2023/11/19 00:51:31;;;;;;;7.82;3.50;;;;;;;9.55;66.82;98954.38;5033053;28;20447;-65
2023/11/19 00:53:56;;;;;;;6.25;3.53;;;;;;;9.18;66.50;98919.34;5039137;28;20041;-66
2023/11/19 00:56:22;;;;;;;6.85;3.45;;;;;;;9.36;66.67;98948.13;5025599;28;20035;-65
2023/11/19 00:58:48;;;;;;;6.93;3.45;;;;;;;9.39;67.76;98960.03;5030211;28;20523;-64
2023/11/19 01:01:13;;;;;;;6.85;3.38;;;;;;;9.39;67.48;98952.25;5025767;28;20092;-65
2023/11/19 01:03:39;;;;;;;7.65;3.85;;;;;;;9.35;68.35;98950.84;5026974;28;20758;-64
2023/11/19 01:06:08;;;;;;;8.68;3.60;;;;;;;9.39;67.39;98947.03;5040552;28;20055;-65
2023/11/19 01:08:35;;;;;;;5.67;3.33;;;;;;;9.28;67.10;98960.09;5023956;28;20037;-67
2023/11/19 01:11:04;;;;;;;7.60;3.70;;;;;;;9.14;67.91;98948.25;5026712;28;20029;-66
2023/11/19 01:13:34;;;;;;;8.27;3.55;;;;;;;9.14;67.50;98954.25;5043458;28;20423;-66
2023/11/19 01:16:02;;;;;;;8.68;3.70;;;;;;;8.90;67.98;98940.75;5040576;28;20032;-67
2023/11/19 01:18:27;;;;;;;7.70;3.70;;;;;;;8.96;67.51;98948.84;5040608;28;20114;-66
2023/11/19 01:20:55;;;;;;;8.63;4.03;;;;;;;8.88;67.91;98948.66;5035277;28;20048;-65
2023/11/19 01:23:25;;;;;;;7.43;4.00;;;;;;;8.52;69.32;98932.53;5019535;28;20578;-65
2023/11/19 01:25:51;;;;;;;7.85;4.13;;;;;;;8.78;69.07;98950.31;5037985;28;20032;-66
2023/11/19 01:28:18;;;;;;;7.28;3.92;;;;;;;8.57;69.01;98893.28;5049711;28;20053;-67
2023/11/19 01:30:44;;;;;;;7.68;4.30;;;;;;;8.71;69.20;98938.84;5032678;28;20027;-63
2023/11/19 01:33:12;;;;;;;8.80;4.18;;;;;;;8.34;69.31;98905.47;5029071;28;20082;-65
2023/11/19 01:35:37;;;;;;;8.40;4.28;;;;;;;8.51;68.94;98935.25;5044942;28;20033;-65
2023/11/19 01:38:03;;;;;;;7.22;4.00;;;;;;;8.51;70.08;98938.66;5043129;28;20097;-62
2023/11/19 01:40:28;;;;;;;8.50;4.20;;;;;;;8.17;69.98;98894.69;5028638;28;20021;-65
2023/11/19 01:42:54;;;;;;;8.95;4.35;;;;;;;8.44;70.32;98929.75;5028719;28;20033;-65
2023/11/19 01:45:28;;;;;;;9.55;3.75;;;;;;;8.48;69.44;98936.31;5029792;28;20462;-64
2023/11/19 01:47:57;;;;;;;8.32;3.92;;;;;;;8.44;69.95;98930.56;5027236;28;20041;-65
2023/11/19 01:50:24;;;;;;;8.40;4.63;;;;;;;8.42;69.23;98929.88;5047915;28;20210;-65
2023/11/19 01:52:53;;;;;;;7.28;3.90;;;;;;;8.28;70.38;98941.28;5028835;28;20052;-65
2023/11/19 01:55:21;;;;;;;8.25;4.47;;;;;;;8.29;70.64;98926.59;5044756;28;20489;-65
2023/11/19 01:57:48;;;;;;;8.27;4.43;;;;;;;8.22;71.18;98918.47;5043041;28;20108;-64
2023/11/19 02:00:16;;;;;;;9.25;4.45;;;;;;;8.25;70.96;98912.22;5045444;28;20079;-63
2023/11/19 02:02:44;;;;;;;7.85;4.15;;;;;;;8.22;71.08;98913.28;5029720;28;20109;-64
2023/11/19 02:05:13;;;;;;;8.80;4.10;;;;;;;8.20;70.86;98915.19;5044725;28;20045;-64
2023/11/19 02:07:38;;;;;;;8.57;3.97;;;;;;;8.28;71.10;98912.78;5026265;28;20381;-64
2023/11/19 02:10:05;;;;;;;7.60;4.18;;;;;;;8.33;71.79;98904.66;5030353;28;20025;-63
2023/11/19 02:12:33;;;;;;;8.70;4.70;;;;;;;8.37;71.98;98907.81;5028445;28;20041;-65
2023/11/19 02:14:59;;;;;;;7.57;3.80;;;;;;;8.08;72.69;98859.16;5030116;28;20033;-64
2023/11/19 02:17:31;;;;;;;7.47;3.45;;;;;;;8.34;71.89;98913.25;5028967;28;20032;-65
2023/11/19 02:19:58;;;;;;;7.70;3.60;;;;;;;8.26;72.62;98909.50;5027942;28;20422;-65
2023/11/19 02:22:26;;;;;;;7.07;3.80;;;;;;;8.20;72.98;98906.59;5051049;28;20028;-66
2023/11/19 02:24:56;;;;;;;7.90;3.90;;;;;;;8.22;73.44;98902.09;5048200;28;20756;-65
2023/11/19 02:27:25;;;;;;;7.55;3.85;;;;;;;8.32;74.08;98908.19;5017556;28;20043;-65
2023/11/19 02:29:50;;;;;;;7.22;4.10;;;;;;;8.02;74.08;98860.47;5031617;28;20140;-67
2023/11/19 02:32:16;;;;;;;7.40;3.70;;;;;;;8.38;74.00;98899.94;5032136;28;20029;-67
2023/11/19 02:34:44;;;;;;;7.45;3.90;;;;;;;8.39;72.98;98892.97;5034234;28;20550;-65
2023/11/19 02:37:09;;;;;;;8.65;3.97;;;;;;;8.37;73.57;98893.09;5045238;28;20133;-66
2023/11/19 02:39:37;;;;;;;7.88;3.22;;;;;;;8.40;74.80;98905.81;5032649;28;20194;-65
2023/11/19 02:42:03;;;;;;;6.53;3.47;;;;;;;8.43;74.47;98890.06;5031129;28;20705;-66
2023/11/19 02:44:30;;;;;;;6.63;3.00;;;;;;;8.43;74.04;98886.63;5031844;28;20036;-66
2023/11/19 02:46:59;;;;;;;6.97;3.28;;;;;;;8.48;74.06;98892.25;5045845;28;20059;-66
2023/11/19 02:49:25;;;;;;;7.05;3.22;;;;;;;8.50;74.12;98880.00;5017898;28;20841;-66
2023/11/19 02:51:50;;;;;;;6.43;3.05;;;;;;;8.36;73.49;98877.66;5048982;28;20166;-66
2023/11/19 02:54:16;;;;;;;6.78;2.90;;;;;;;8.44;73.67;98881.31;5032109;28;20024;-67
2023/11/19 02:56:47;;;;;;;5.72;2.75;;;;;;;8.42;73.73;98882.41;5047080;28;20029;-66
2023/11/19 02:59:27;;;;;;;5.78;2.60;;;;;;;8.31;74.32;98859.91;5030359;28;20044;-65
2023/11/19 03:01:53;;;;;;;5.65;2.50;;;;;;;8.41;73.82;98860.78;5046583;28;20039;-67
2023/11/19 03:04:20;;;;;;;5.20;2.58;;;;;;;8.30;72.93;98844.50;5033848;28;20364;-64
2023/11/19 03:06:50;;;;;;;5.93;2.28;;;;;;;8.42;72.50;98856.50;5033212;28;20190;-67
2023/11/19 03:09:15;;;;;;;5.80;2.80;;;;;;;8.48;72.76;98847.41;5036084;28;20043;-66
2023/11/19 03:11:43;;;;;;;5.00;2.38;;;;;;;8.46;72.75;98844.91;5031472;28;20028;-65
2023/11/19 03:14:09;;;;;;;6.75;2.60;;;;;;;8.44;73.36;98831.28;5015614;28;20094;-66
2023/11/19 03:16:34;;;;;;;6.43;2.42;;;;;;;8.40;74.02;98840.22;5034111;28;20686;-66
2023/11/19 03:19:00;;;;;;;5.18;2.17;;;;;;;8.50;72.96;98848.91;5030882;28;20023;-66
2023/11/19 03:21:29;;;;;;;5.03;2.20;;;;;;;8.21;72.57;98814.97;5018145;28;20039;-64
2023/11/19 03:23:55;;;;;;;7.03;2.70;;;;;;;8.09;72.84;98848.69;5033261;28;20863;-66
2023/11/19 03:26:21;;;;;;;4.78;2.08;;;;;;;8.27;68.92;98846.38;5033897;28;20025;-66
2023/11/19 03:28:47;;;;;;;5.13;2.30;;;;;;;8.35;69.84;98855.31;5032998;28;20040;-66
2023/11/19 03:31:12;;;;;;;5.63;2.60;;;;;;;8.53;71.60;98855.63;5035133;28;20020;-66
2023/11/19 03:33:38;;;;;;;5.78;2.42;;;;;;;8.54;70.84;98858.09;5050861;28;20025;-66
2023/11/19 03:36:03;;;;;;;5.30;2.35;;;;;;;8.51;67.96;98852.34;5018361;28;20082;-67
2023/11/19 03:38:31;;;;;;;5.88;2.53;;;;;;;8.56;65.35;98855.34;5032055;28;20029;-66
2023/11/19 03:40:59;;;;;;;5.43;2.40;;;;;;;8.52;69.20;98844.41;5033649;28;20033;-67
2023/11/19 03:43:24;;;;;;;5.78;2.50;;;;;;;8.68;70.01;98856.94;5034061;28;20033;-65
2023/11/19 03:45:52;;;;;;;5.28;2.00;;;;;;;8.59;69.31;98855.91;5051301;28;20055;-66
2023/11/19 03:48:20;;;;;;;4.85;2.35;;;;;;;8.51;69.04;98844.56;5047469;28;20059;-65
2023/11/19 03:50:45;;;;;;;5.32;2.00;;;;;;;8.48;69.91;98860.34;5015922;28;20025;-66
2023/11/19 03:53:13;;;;;;;6.78;2.60;;;;;;;8.29;70.33;98807.41;5026512;28;20060;-66
2023/11/19 03:55:38;;;;;;;5.53;2.25;;;;;;;8.48;70.07;98840.44;5031944;28;20640;-66
2023/11/19 03:58:04;;;;;;;5.22;2.40;;;;;;;8.17;70.00;98788.50;5047120;28;20074;-66
2023/11/19 04:00:29;;;;;;;5.28;2.20;;;;;;;8.41;70.16;98831.47;5042756;28;20063;-67
2023/11/19 04:02:57;;;;;;;5.68;2.75;;;;;;;8.44;71.16;98837.25;5032718;28;20570;-65
2023/11/19 04:05:22;;;;;;;6.80;3.33;;;;;;;8.03;70.51;98818.13;5030849;28;20112;-67
2023/11/19 04:07:50;;;;;;;7.00;3.80;;;;;;;8.01;71.01;98832.13;5031872;28;20412;-66
2023/11/19 04:10:16;;;;;;;6.95;3.65;;;;;;;8.10;71.89;98815.84;5030724;28;20044;-66
2023/11/19 04:12:44;;;;;;;6.45;3.30;;;;;;;8.22;71.57;98814.03;5046653;28;20040;-66
2023/11/19 04:15:11;;;;;;;6.15;2.42;;;;;;;8.15;71.21;98811.09;5023595;28;20127;-65
2023/11/19 04:17:39;;;;;;;5.03;2.45;;;;;;;7.96;71.62;98775.53;5024434;28;20101;-66
2023/11/19 04:20:10;;;;;;;5.13;2.42;;;;;;;7.81;70.93;98816.44;5046747;28;20059;-65
2023/11/19 04:22:36;;;;;;;5.35;2.40;;;;;;;7.87;72.40;98809.94;5029078;28;20523;-66
2023/11/19 04:25:01;;;;;;;5.15;2.15;;;;;;;7.93;72.41;98822.38;5050444;28;20033;-67
2023/11/19 04:27:26;;;;;;;5.60;2.20;;;;;;;7.50;73.24;98818.00;5036281;28;20118;-66
2023/11/19 04:29:52;;;;;;;6.32;2.83;;;;;;;7.48;72.16;98781.91;5033805;28;20029;-66
2023/11/19 04:32:20;;;;;;;6.03;2.53;;;;;;;7.75;71.76;98826.44;5030258;28;20032;-65
2023/11/19 04:34:46;;;;;;;5.22;2.40;;;;;;;7.75;72.50;98813.50;5035983;28;20021;-65
2023/11/19 04:37:11;;;;;;;5.40;2.50;;;;;;;7.69;72.18;98801.84;5045420;28;20036;-64
2023/11/19 04:39:39;;;;;;;7.88;2.83;;;;;;;7.35;73.20;98776.03;5033037;28;20074;-66
2023/11/19 04:42:07;;;;;;;5.90;2.58;;;;;;;7.58;73.12;98830.34;5026060;28;20043;-65
2023/11/19 04:44:37;;;;;;;6.28;2.40;;;;;;;7.57;72.96;98824.34;5029518;28;20796;-66
2023/11/19 04:47:03;;;;;;;5.90;2.60;;;;;;;7.48;73.03;98820.72;5035505;28;20067;-65
2023/11/19 04:49:30;;;;;;;5.05;2.22;;;;;;;7.37;74.22;98802.59;5033779;28;20036;-65
2023/11/19 04:51:56;;;;;;;5.13;2.42;;;;;;;7.17;74.51;98814.50;5018404;28;20138;-65
2023/11/19 04:54:26;;;;;;;6.00;2.80;;;;;;;7.39;72.83;98813.69;5042992;28;20593;-66
2023/11/19 04:56:52;;;;;;;7.43;3.30;;;;;;;7.19;73.25;98814.38;5038174;28;20111;-65
2023/11/19 04:59:17;;;;;;;6.50;3.03;;;;;;;7.21;73.21;98809.91;5030556;28;20041;-66
2023/11/19 05:01:46;;;;;;;6.75;2.90;;;;;;;7.07;73.63;98762.69;5022894;28;20032;-65
2023/11/19 05:04:12;;;;;;;6.18;2.80;;;;;;;7.11;73.51;98805.44;5007201;28;20029;-66
2023/11/19 05:06:37;;;;;;;7.43;3.20;;;;;;;7.04;73.48;98811.22;5019437;28;20408;-65
2023/11/19 05:09:07;;;;;;;6.68;3.10;;;;;;;6.63;74.26;98789.34;5025685;28;20555;-65
2023/11/19 05:11:34;;;;;;;7.30;3.10;;;;;;;6.91;75.31;98803.56;5013980;28;20033;-64
2023/11/19 05:13:59;;;;;;;6.45;3.03;;;;;;;6.99;74.92;98803.81;5027829;28;20108;-66
2023/11/19 05:16:25;;;;;;;6.15;2.90;;;;;;;6.85;75.19;98797.09;5023180;28;20029;-65
2023/11/19 05:18:50;;;;;;;6.22;3.20;;;;;;;6.95;73.96;98801.56;5026547;28;20029;-66
2023/11/19 05:21:21;;;;;;;7.72;3.22;;;;;;;7.04;73.56;98806.03;5016565;28;20384;-66
2023/11/19 05:23:46;;;;;;;7.32;3.47;;;;;;;7.10;73.44;98793.47;5031460;28;20135;-65
2023/11/19 05:26:25;;;;;;;7.95;3.97;;;;;;;7.10;73.62;98793.47;5012406;28;20029;-67
2023/11/19 05:28:50;;;;;;;7.32;3.95;;;;;;;6.89;73.61;98802.88;5032166;28;20656;-66
2023/11/19 05:31:21;;;;;;;8.88;3.70;;;;;;;6.90;72.84;98800.16;5015514;28;20044;-65
2023/11/19 05:33:49;;;;;;;7.75;3.92;;;;;;;6.66;73.92;98748.59;5015404;28;20029;-64
2023/11/19 05:36:14;;;;;;;7.28;3.60;;;;;;;6.57;74.25;98731.19;5031291;28;20119;-66
2023/11/19 05:38:40;;;;;;;8.02;3.80;;;;;;;6.85;74.27;98773.03;5035536;28;20064;-66
2023/11/19 05:41:08;;;;;;;8.32;4.22;;;;;;;6.80;74.67;98795.81;5013427;28;20122;-66
2023/11/19 05:43:34;;;;;;;7.93;3.63;;;;;;;6.86;74.18;98779.81;5026664;28;20029;-67
2023/11/19 05:46:01;;;;;;;7.57;3.65;;;;;;;6.90;74.24;98783.84;5029442;28;20047;-66
2023/11/19 05:48:27;;;;;;;9.40;3.78;;;;;;;6.72;74.67;98792.03;5029144;28;20033;-66
2023/11/19 05:50:53;;;;;;;8.82;3.88;;;;;;;6.50;74.30;98754.09;5038436;28;20040;-67
2023/11/19 05:53:19;;;;;;;9.00;3.67;;;;;;;6.73;74.48;98760.09;5045148;28;20048;-66
2023/11/19 05:55:57;;;;;;;6.88;3.63;;;;;;;6.75;75.34;98772.88;5025775;28;20035;-67
2023/11/19 05:58:25;;;;;;;7.95;3.50;;;;;;;6.72;75.07;98779.13;5030296;28;20110;-67
2023/11/19 06:00:51;;;;;;;9.18;4.03;;;;;;;6.57;75.02;98782.03;5026231;28;20102;-66
2023/11/19 06:03:19;;;;;;;8.20;3.78;;;;;;;6.64;75.53;98781.44;5014590;28;21382;-66
2023/11/19 06:05:46;;;;;;;7.53;3.80;;;;;;;6.76;76.44;98779.72;5028411;28;20538;-66
2023/11/19 06:08:14;;;;;;;7.55;3.50;;;;;;;6.77;76.49;98791.69;5034631;28;20033;-67
2023/11/19 06:10:41;;;;;;;6.47;3.38;;;;;;;6.83;76.79;98783.47;5034960;28;20280;-66
2023/11/19 06:13:06;;;;;;;6.32;3.25;;;;;;;6.90;76.18;98768.34;5031001;28;20091;-65
2023/11/19 06:15:33;;;;;;;8.73;3.28;;;;;;;6.87;76.42;98773.72;5031443;28;20120;-66
2023/11/19 06:18:01;;;;;;;6.50;3.17;;;;;;;6.80;77.29;98775.94;5033570;28;20044;-64
2023/11/19 06:20:28;;;;;;;6.93;3.03;;;;;;;6.91;77.44;98765.59;5034412;28;20035;-65
2023/11/19 06:22:54;;;;;;;6.85;2.95;;;;;;;6.76;77.76;98729.81;5012758;28;20029;-66
2023/11/19 06:25:19;;;;;;;6.18;2.80;;;;;;;7.03;77.49;98770.81;5014398;28;20033;-66
2023/11/19 06:27:45;;;;;;;8.13;3.08;;;;;;;6.79;78.19;98726.97;5030242;28;20080;-65
2023/11/19 06:30:11;;;;;;;5.95;2.78;;;;;;;7.11;78.84;98760.69;5039783;28;20075;-67
2023/11/19 06:32:37;;;;;;;4.25;1.75;;;;;;;7.20;78.45;98765.13;5031037;28;20129;-66
2023/11/19 06:35:04;;;;;;;6.10;2.17;;;;;;;7.21;78.18;98761.63;5031954;28;20108;-67
2023/11/19 06:37:30;;;;;;;5.93;2.58;;;;;;;7.37;77.67;98758.63;5010060;28;20037;-66
2023/11/19 06:39:55;;;;;;;5.57;2.53;;;;;;;7.40;77.88;98758.41;5015908;28;20685;-68
2023/11/19 06:42:21;;;;;;;6.90;2.42;;;;;;;7.46;77.83;98770.84;5033325;28;20032;-67
2023/11/19 06:44:46;;;;;;;4.97;2.28;;;;;;;7.19;77.88;98724.72;5010019;28;20033;-65
2023/11/19 06:47:11;;;;;;;5.40;2.08;;;;;;;7.42;77.77;98756.50;5027707;28;20028;-67
2023/11/19 06:49:37;;;;;;;5.38;2.40;;;;;;;7.49;77.69;98746.50;5035705;28;20032;-67
2023/11/19 06:52:03;;;;;;;4.80;2.30;;;;;;;7.48;77.71;98753.47;5013475;28;20830;-66
2023/11/19 06:54:32;;;;;;;4.38;1.90;;;;;;;7.53;76.65;98762.63;5031134;28;20056;-67
2023/11/19 06:56:57;;;;;;;4.88;2.10;;;;;;;7.59;77.78;98767.28;5034075;28;20020;-67
2023/11/19 06:59:23;;;;;;;4.30;1.63;;;;;;;7.61;75.28;98773.16;5037828;28;20040;-67
2023/11/19 07:01:51;;;;;;;5.10;1.50;;;;;;;7.53;72.93;98775.56;5030267;28;20059;-67
2023/11/19 07:04:16;;;;;;;3.72;1.30;;;;;;;7.61;72.50;98775.75;5027399;28;20128;-66
2023/11/19 07:06:44;;;;;;;4.07;1.40;;;;;;;7.41;72.95;98731.59;5029456;28;20033;-66
2023/11/19 07:09:09;;;;;;;4.38;1.67;;;;;;;7.80;73.03;98768.16;5034544;28;20029;-67
2023/11/19 07:11:46;;;;;;;3.80;1.30;;;;;;;7.88;71.36;98773.56;5038145;28;20036;-67
2023/11/19 07:14:13;;;;;;;4.35;1.40;;;;;;;7.83;70.04;98755.00;5036361;28;20037;-67
2023/11/19 07:16:42;;;;;;;4.10;1.40;;;;;;;7.87;69.27;98758.16;5032297;28;20580;-66
2023/11/19 07:19:08;;;;;;;4.50;1.40;;;;;;;7.95;69.20;98763.53;5030306;28;20502;-67
2023/11/19 07:21:33;;;;;;;3.53;1.38;;;;;;;7.89;69.71;98764.84;5050392;28;20033;-67
2023/11/19 07:24:02;;;;;;;4.68;1.70;;;;;;;7.62;69.80;98733.41;5018186;28;20033;-66
2023/11/19 07:26:27;;;;;;;4.78;1.48;;;;;;;7.68;69.34;98733.75;5036770;28;20025;-66
2023/11/19 07:28:52;;;;;;;5.20;1.20;;;;;;;7.85;68.72;98762.63;5048652;28;20120;-67
2023/11/19 07:31:21;;;;;;;4.20;1.27;;;;;;;7.87;68.86;98768.50;5045650;28;20025;-65
2023/11/19 07:33:49;;;;;;;4.03;1.25;;;;;;;7.93;68.52;98756.84;5036703;28;20044;-66
2023/11/19 07:36:17;;;;;;;3.72;1.20;;;;;;;7.80;69.27;98746.66;5016370;28;20036;-66
2023/11/19 07:38:42;;;;;;;4.22;1.42;;;;;;;7.88;68.78;98746.84;5036297;28;20028;-67
2023/11/19 07:41:12;;;;;;;3.40;1.35;;;;;;;7.98;68.76;98763.28;5043637;28;20770;-66
2023/11/19 07:43:39;;;;;;;4.00;1.23;;;;;;;7.95;68.21;98757.53;5025373;28;20063;-67
2023/11/19 07:46:04;;;;;;;3.72;1.20;;;;;;;7.76;69.51;98761.59;5036884;28;20028;-67
2023/11/19 07:48:30;;;;;;;3.90;1.38;;;;;;;7.77;69.51;98767.59;5029565;28;20041;-67
2023/11/19 07:50:55;;;;;;;8.00;1.50;;;;;;;7.72;70.26;98760.22;5035385;28;20075;-67
2023/11/19 07:53:23;;;;;;;5.43;1.50;;;;;;;7.77;70.18;98768.41;5017212;28;20064;-66
2023/11/19 07:55:48;;;;;;;3.90;1.23;;;;;;;7.73;70.12;98769.59;5019947;28;20124;-66
2023/11/19 07:58:14;;;;;;;4.43;1.70;;;;;;;7.79;70.34;98776.88;5034330;28;20115;-67
2023/11/19 08:00:40;;;;;;;3.33;1.15;;;;;;;7.64;70.08;98736.69;5032456;28;20036;-67
2023/11/19 08:03:05;;;;;;;4.28;1.30;;;;;;;7.85;70.39;98766.03;5035042;28;20051;-66
2023/11/19 08:05:31;;;;;;;3.78;1.20;;;;;;;7.76;70.65;98753.84;5014556;28;20060;-66
2023/11/19 08:07:59;;;;;;;3.58;1.25;;;;;;;8.03;70.17;98775.84;5052438;28;20672;-63
2023/11/19 08:10:25;;;;;;;3.90;1.30;;;;;;;7.79;70.50;98765.69;5013059;28;20039;-66
2023/11/19 08:12:50;;;;;;;3.85;1.50;;;;;;;7.98;70.32;98776.22;5030473;28;20036;-65
2023/11/19 08:15:18;;;;;;;5.53;1.60;;;;;;;7.86;69.43;98772.84;5031762;28;20079;-67
2023/11/19 08:17:45;;;;;;;4.03;1.48;;;;;;;7.99;69.11;98777.03;5052250;28;20064;-66
2023/11/19 08:20:11;;;;;;;4.32;1.20;;;;;;;7.75;70.17;98739.25;5013321;28;20035;-67
2023/11/19 08:22:37;;;;;;;5.32;1.55;;;;;;;7.88;69.54;98777.91;5036025;28;20036;-66
2023/11/19 08:25:08;;;;;;;4.47;1.55;;;;;;;7.96;69.30;98780.72;5018357;28;20950;-67
2023/11/19 08:27:33;;;;;;;5.85;2.13;;;;;;;8.01;68.61;98777.72;5023569;28;20076;-66
2023/11/19 08:29:58;;;;;;;5.22;1.70;;;;;;;7.93;68.77;98787.91;5032548;28;20729;-65
2023/11/19 08:32:25;;;;;;;7.32;2.20;;;;;;;7.96;68.94;98780.72;5013553;28;20487;-66
2023/11/19 08:34:53;;;;;;;4.90;1.75;;;;;;;8.09;68.87;98796.91;5031908;28;20108;-65
2023/11/19 08:37:20;;;;;;;4.20;1.58;;;;;;;7.91;69.35;98782.84;5011181;28;20087;-64
2023/11/19 08:39:50;;;;;;;4.43;1.48;;;;;;;8.01;68.60;98790.69;5008125;28;20037;-66
2023/11/19 08:42:16;;;;;;;4.63;1.70;;;;;;;8.07;68.15;98782.44;5016941;28;20079;-66
2023/11/19 08:44:43;;;;;;;5.00;2.08;;;;;;;8.05;68.56;98766.22;5025639;28;20057;-65
2023/11/19 08:47:15;;;;;;;5.10;1.60;;;;;;;8.12;67.82;98785.44;5026437;28;20041;-65
2023/11/19 08:49:41;;;;;;;7.78;3.42;;;;;;;8.16;68.07;98765.31;5029769;28;20478;-66
2023/11/19 08:52:11;;;;;;;7.38;3.10;;;;;;;8.11;67.97;98765.69;5014800;28;20057;-64
2023/11/19 08:54:42;;;;;;;4.32;1.80;;;;;;;8.18;67.34;98768.63;5017312;28;20041;-63
2023/11/19 08:57:10;;;;;;;7.13;3.10;;;;;;;8.14;68.06;98767.19;5028880;28;20097;-65
2023/11/19 08:59:38;;;;;;;4.35;1.80;;;;;;;8.12;66.91;98766.50;5031563;28;20039;-65
2023/11/19 09:02:10;;;;;;;4.85;2.00;;;;;;;8.02;68.14;98774.22;5014488;28;20115;-66
2023/11/19 09:04:38;;;;;;;6.05;2.30;;;;;;;8.12;68.29;98775.09;5024473;28;20031;-65
2023/11/19 09:07:03;;;;;;;8.13;4.40;;;;;;;8.15;68.34;98761.91;5046089;28;20166;-66
2023/11/19 09:09:29;;;;;;;5.38;1.85;;;;;;;8.19;67.36;98775.41;5028901;28;20045;-67
2023/11/19 09:11:55;;;;;;;7.00;3.58;;;;;;;8.21;67.29;98776.97;5048887;28;20128;-66
2023/11/19 09:14:25;;;;;;;4.75;1.85;;;;;;;8.28;66.33;98775.47;5016980;28;20509;-65
2023/11/19 09:16:51;;;;;;;5.68;2.30;;;;;;;8.36;65.76;98766.25;5046647;28;20597;-64
2023/11/19 09:19:17;;;;;;;4.75;1.60;;;;;;;8.34;64.77;98763.81;5029273;28;20021;-66
2023/11/19 09:21:45;;;;;;;4.30;1.90;;;;;;;8.46;64.27;98764.59;5047461;28;20034;-64
2023/11/19 09:24:10;;;;;;;5.43;1.70;;;;;;;8.48;62.54;98765.28;5026890;28;20030;-66
2023/11/19 09:26:36;;;;;;;3.70;1.30;;;;;;;8.55;62.47;98771.59;5047151;28;20064;-66
2023/11/19 09:29:02;;;;;;;4.72;1.30;;;;;;;8.62;62.32;98780.50;5026402;28;20032;-65
2023/11/19 09:31:27;;;;;;;4.43;1.40;;;;;;;8.62;61.29;98775.31;5018199;28;20040;-66
2023/11/19 09:33:53;;;;;;;5.95;1.58;;;;;;;8.74;61.50;98773.47;5032106;28;20044;-65
2023/11/19 09:36:19;;;;;;;4.32;1.40;;;;;;;8.73;61.10;98768.44;5026739;28;20036;-66
2023/11/19 09:38:46;;;;;;;3.70;1.17;;;;;;;8.83;59.97;98767.53;5029097;28;20067;-66
2023/11/19 09:41:13;;;;;;;4.97;1.77;;;;;;;8.88;61.67;98761.13;5021935;28;20021;-66
2023/11/19 09:43:44;;;;;;;3.85;1.35;;;;;;;8.94;61.72;98743.25;5033147;28;20037;-67
2023/11/19 09:46:13;;;;;;;4.45;1.40;;;;;;;9.06;60.50;98736.22;5030475;28;20045;-66
2023/11/19 09:48:42;;;;;;;3.53;1.17;;;;;;;9.17;59.76;98745.66;5029571;28;20066;-66
2023/11/19 09:51:11;;;;;;;3.90;1.30;;;;;;;9.24;60.09;98749.38;5045842;28;20361;-66
2023/11/19 09:53:37;;;;;;;4.77;1.10;;;;;;;9.30;58.53;98742.81;5026808;28;20049;-66
2023/11/19 09:56:04;;;;;;;3.50;1.17;;;;;;;9.35;56.50;98730.28;5041400;28;20107;-66
2023/11/19 09:58:31;;;;;;;4.05;1.20;;;;;;;9.19;53.52;98697.06;5031000;28;20123;-66
2023/11/19 10:00:59;;;;;;;3.30;1.17;;;;;;;9.53;53.46;98714.88;5028624;28;20086;-67
2023/11/19 10:03:24;;;;;;;3.78;1.30;;;;;;;9.65;51.59;98744.09;5028607;28;20043;-67
2023/11/19 10:05:54;;;;;;;3.30;1.05;;;;;;;9.63;51.23;98749.44;5013292;28;20033;-65
2023/11/19 10:08:22;;;;;;;3.55;1.15;;;;;;;9.73;50.02;98739.88;5031280;28;20067;-67
2023/11/19 10:10:47;;;;;;;5.18;1.33;;;;;;;9.75;50.19;98729.34;5012897;28;20024;-66
2023/11/19 10:13:14;;;;;;;3.38;1.20;;;;;;;9.88;49.94;98726.50;5034144;28;20017;-66
2023/11/19 10:15:40;;;;;;;3.78;1.25;;;;;;;9.95;51.07;98737.97;5028199;28;20522;-68
2023/11/19 10:18:05;;;;;;;3.10;1.02;;;;;;;9.95;50.69;98741.38;5027905;28;20029;-66
2023/11/19 10:20:40;;;;;;;4.35;1.40;;;;;;;9.91;48.40;98731.38;5013072;28;20570;-72
2023/11/19 10:23:05;;;;;;;4.38;1.30;;;;;;;9.95;47.50;98732.78;5046984;28;20089;-71
2023/11/19 10:25:33;;;;;;;3.60;1.20;;;;;;;9.91;47.17;98714.03;5024592;28;20626;-69
2023/11/19 10:27:58;;;;;;;4.78;1.20;;;;;;;9.76;47.71;98686.84;5030452;28;20033;-69
2023/11/19 10:30:29;;;;;;;3.58;1.13;;;;;;;10.03;48.73;98717.31;5027401;28;20033;-70
2023/11/19 10:33:05;;;;;;;3.92;1.13;;;;;;;9.73;49.29;98656.78;5015436;28;20032;-71
2023/11/19 10:35:32;;;;;;;3.60;1.13;;;;;;;10.00;49.44;98671.66;5017073;28;20087;-70
2023/11/19 10:38:00;;;;;;;3.60;1.10;;;;;;;10.23;48.46;98686.09;5024124;28;20033;-70
2023/11/19 10:40:38;;;;;;;4.47;1.25;;;;;;;10.32;47.76;98674.88;5025679;28;20053;-69
2023/11/19 10:43:04;;;;;;;5.13;1.60;;;;;;;10.34;48.71;98673.78;5040585;28;20025;-70
2023/11/19 10:45:33;;;;;;;6.60;2.90;;;;;;;10.28;45.71;98678.72;5029483;28;20033;-69
2023/11/19 10:48:02;;;;;;;8.07;3.20;;;;;;;10.35;46.68;98669.41;5029839;28;20093;-69
2023/11/19 10:50:30;;;;;;;6.15;2.60;;;;;;;10.41;46.68;98668.03;5027875;28;20119;-70
2023/11/19 10:52:59;;;;;;;5.40;2.40;;;;;;;10.41;45.27;98665.44;5029556;28;20091;-69
2023/11/19 10:55:30;;;;;;;4.00;1.15;;;;;;;10.03;43.18;98634.19;5010546;28;20033;-69
2023/11/19 10:58:05;;;;;;;3.65;1.10;;;;;;;10.20;45.65;98653.41;5015266;28;20480;-69
2023/11/19 11:00:39;;;;;;;3.70;1.10;;;;;;;10.38;47.08;98676.91;5038718;28;20171;-70
2023/11/19 11:03:18;;;;;;;4.70;1.20;;;;;;;10.47;47.71;98678.66;5044650;28;21176;-70
2023/11/19 11:05:47;;;;;;;3.55;1.30;;;;;;;10.53;46.64;98672.06;5028821;28;20091;-69
2023/11/19 11:08:13;;;;;;;6.00;1.93;;;;;;;10.66;47.16;98662.19;5002097;28;20738;-70
2023/11/19 11:10:45;;;;;;;4.28;1.40;;;;;;;10.65;50.09;98657.13;5044726;28;20048;-71
2023/11/19 11:13:12;;;;;;;4.35;1.23;;;;;;;10.76;50.57;98662.13;5027998;28;20033;-70
2023/11/19 11:15:42;;;;;;;3.72;1.25;;;;;;;10.61;49.31;98608.97;5032789;28;20102;-70
2023/11/19 11:18:11;;;;;;;4.20;1.15;;;;;;;10.86;47.35;98644.69;5028684;28;20787;-70
2023/11/19 11:20:41;;;;;;;3.65;1.20;;;;;;;10.96;46.79;98634.22;5024175;28;20393;-70
2023/11/19 11:23:06;;;;;;;3.53;1.20;;;;;;;11.01;46.65;98629.41;5047093;28;20324;-70
2023/11/19 11:25:38;;;;;;;4.78;1.40;;;;;;;10.85;46.85;98588.41;5026744;28;20762;-71
2023/11/19 11:28:16;;;;;;;4.20;1.20;;;;;;;11.19;46.63;98619.00;5005744;28;20072;-70
2023/11/19 11:30:57;;;;;;;3.60;1.00;;;;;;;11.29;43.09;98619.75;5024342;28;20025;-70
2023/11/19 11:33:41;;;;;;;3.00;1.00;;;;;;;11.38;39.59;98628.44;5028756;28;20028;-69
2023/11/19 11:36:20;;;;;;;4.32;1.15;;;;;;;11.42;46.32;98628.97;5024987;28;21537;-70
2023/11/19 11:38:48;;;;;;;3.17;1.10;;;;;;;11.54;47.75;98625.16;5001585;28;20376;-70
2023/11/19 11:41:20;;;;;;;5.07;1.33;;;;;;;11.60;45.91;98626.34;5019648;28;20032;-70